Slater, Missouri
Current Conditions -  °F | °C
As of 9:55 PM on Saturday 20 Dec 2014 (Local Time) from KVER Reporting Station
Overcast Overcast  
Wind Chill: 38°   Ceiling: 2200
Heat Index: 41°   Visibility: 10mi
Dew Point: 37°   Wind: 5mph
Humidity: 85%   Direction: 170°S
Pressure: 30.19"   Gusts: NA
Location:  39.22°N, 93.07°W
Report Text: KVER 210355Z AUTO 17004KT 10SM OVC022 05/03 A3019 RMK AO2 T00480025
Loading
Personal Weather Stations






























Interactive Weather Map New forecast layout! Learn more

10-Day Weather Forecast

Advertisements
Track Severe Weather on mobile